createdAt,value
2022-09-20T00:01:49.888Z,10.23
2022-09-20T00:04:18.975Z,10.20
2022-09-20T00:06:47.804Z,10.19
2022-09-20T00:09:16.688Z,10.18
2022-09-20T00:11:45.924Z,10.17
2022-09-20T00:14:14.884Z,10.15
2022-09-20T00:16:45.155Z,10.13
2022-09-20T00:19:19.780Z,10.11
2022-09-20T00:21:48.940Z,10.10
2022-09-20T00:24:18.044Z,10.08
2022-09-20T00:26:46.885Z,10.06
2022-09-20T00:29:16.868Z,10.01
2022-09-20T00:31:47.384Z,9.98
2022-09-20T00:34:33.708Z,9.94
2022-09-20T00:37:02.859Z,9.91
2022-09-20T00:39:32.105Z,9.89
2022-09-20T00:42:00.944Z,9.87
2022-09-20T00:44:52.719Z,9.83
2022-09-20T00:47:30.718Z,9.82
2022-09-20T00:50:04.124Z,9.80
2022-09-20T00:52:33.630Z,9.78
2022-09-20T00:55:05.088Z,9.74
2022-09-20T00:57:35.471Z,9.72
2022-09-20T01:00:08.959Z,9.69
2022-09-20T01:02:43.154Z,9.65
2022-09-20T01:05:14.215Z,9.62
2022-09-20T01:07:45.124Z,9.60
2022-09-20T01:10:14.554Z,9.56
2022-09-20T01:12:46.216Z,9.52
2022-09-20T01:15:16.115Z,9.50
2022-09-20T01:17:49.086Z,9.44
2022-09-20T01:20:23.706Z,9.43
2022-09-20T01:23:06.663Z,9.38
2022-09-20T01:26:16.200Z,9.34
2022-09-20T01:28:50.001Z,9.31
2022-09-20T01:31:25.810Z,9.29
2022-09-20T01:33:59.504Z,9.25
2022-09-20T01:36:36.022Z,9.23
2022-09-20T01:39:11.829Z,9.21
2022-09-20T01:41:46.872Z,9.17
2022-09-20T01:44:23.997Z,9.15
2022-09-20T01:46:59.966Z,9.12
2022-09-20T01:49:40.775Z,9.10
2022-09-20T01:52:57.638Z,9.06
2022-09-20T01:56:04.028Z,9.03
2022-09-20T01:59:22.665Z,9.00
2022-09-20T02:02:14.626Z,8.94
2022-09-20T02:05:20.863Z,8.92
2022-09-20T02:08:30.921Z,8.90
2022-09-20T02:11:10.669Z,8.86
2022-09-20T02:13:46.976Z,8.84
2022-09-20T02:16:45.156Z,8.82
2022-09-20T02:19:34.052Z,8.78
2022-09-20T02:22:17.555Z,8.77
2022-09-20T02:24:54.437Z,8.74
2022-09-20T02:27:31.837Z,8.71
2022-09-20T02:34:25.814Z,8.67
2022-09-20T02:37:09.346Z,8.65
2022-09-20T02:39:46.241Z,8.64
2022-09-20T02:42:23.591Z,8.62
2022-09-20T02:45:03.915Z,8.63
2022-09-20T02:47:38.067Z,8.63
2022-09-20T02:50:21.034Z,8.64
2022-09-20T02:53:06.852Z,8.66
2022-09-20T02:55:42.801Z,8.68
2022-09-20T02:58:27.987Z,8.70
2022-09-20T03:01:06.480Z,8.72
2022-09-20T03:03:47.948Z,8.73
2022-09-20T03:06:31.323Z,8.77
2022-09-20T03:09:08.931Z,8.78
2022-09-20T03:11:47.475Z,8.79
2022-09-20T03:14:23.138Z,8.81
2022-09-20T03:17:09.003Z,8.82
2022-09-20T03:19:58.737Z,8.81
2022-09-20T03:22:39.700Z,8.82
2022-09-20T03:25:26.768Z,8.83
2022-09-20T03:28:07.724Z,8.82
2022-09-20T03:30:52.579Z,8.82
2022-09-20T03:33:34.069Z,8.81
2022-09-20T03:36:18.416Z,8.79
2022-09-20T03:39:02.865Z,8.78
2022-09-20T03:41:44.218Z,8.76
2022-09-20T03:44:32.649Z,8.74
2022-09-20T03:47:09.229Z,8.72
2022-09-20T03:50:04.313Z,8.69
2022-09-20T03:52:54.557Z,8.66
2022-09-20T03:55:47.921Z,8.62
2022-09-20T03:58:36.400Z,8.62
2022-09-20T04:01:29.753Z,8.58
2022-09-20T04:04:08.422Z,8.55
2022-09-20T04:07:00.641Z,8.52
2022-09-20T04:09:49.755Z,8.48
2022-09-20T04:12:30.842Z,8.44
2022-09-20T04:15:17.319Z,8.41
2022-09-20T04:17:55.663Z,8.37
2022-09-20T04:20:33.167Z,8.34
2022-09-20T04:23:10.392Z,8.29
2022-09-20T04:25:44.274Z,8.27
2022-09-20T04:28:22.495Z,8.25
2022-09-20T04:30:57.780Z,8.21
2022-09-20T04:33:32.332Z,8.20
2022-09-20T04:36:39.617Z,8.19
2022-09-20T04:39:19.934Z,8.19
2022-09-20T04:42:24.298Z,8.17
2022-09-20T04:45:14.288Z,8.17
2022-09-20T04:48:15.873Z,8.17
2022-09-20T04:51:23.056Z,8.17
2022-09-20T04:54:25.034Z,8.17
2022-09-20T04:57:11.218Z,8.18
2022-09-20T04:59:54.245Z,8.19
2022-09-20T05:03:06.331Z,8.21
2022-09-20T05:05:55.983Z,8.22
2022-09-20T05:09:03.653Z,8.25
2022-09-20T05:12:02.493Z,8.26
2022-09-20T05:15:23.221Z,8.27
2022-09-20T05:18:26.370Z,8.29
2022-09-20T05:21:28.156Z,8.30
2022-09-20T05:24:23.205Z,8.32
2022-09-20T05:27:08.526Z,8.33
2022-09-20T05:29:48.671Z,8.35
2022-09-20T05:32:27.367Z,8.38
2022-09-20T05:35:03.464Z,8.43
2022-09-20T05:37:45.097Z,8.46
2022-09-20T05:40:29.131Z,8.53
2022-09-20T05:43:11.285Z,8.58
2022-09-20T05:46:00.553Z,8.63
2022-09-20T05:48:39.771Z,8.68
2022-09-20T05:51:25.807Z,8.74
2022-09-20T05:54:23.175Z,8.79
2022-09-20T05:57:00.919Z,8.90
2022-09-20T05:59:46.642Z,8.96
2022-09-20T06:02:29.226Z,9.05
2022-09-20T06:05:10.060Z,9.09
2022-09-20T06:08:02.413Z,9.19
2022-09-20T06:10:55.868Z,9.31
2022-09-20T06:13:46.510Z,9.39
2022-09-20T06:16:23.156Z,9.50
2022-09-20T06:19:05.134Z,9.64
2022-09-20T06:21:43.779Z,9.82
2022-09-20T06:24:27.155Z,9.93
2022-09-20T06:27:00.678Z,10.04
2022-09-20T06:29:37.448Z,10.14
2022-09-20T06:32:06.823Z,10.24
2022-09-20T06:34:36.351Z,10.28
2022-09-20T06:37:35.839Z,10.35
2022-09-20T06:40:42.805Z,10.43
2022-09-20T06:43:14.563Z,10.48
2022-09-20T06:45:44.162Z,10.54
2022-09-20T06:48:15.182Z,10.59
2022-09-20T06:50:45.325Z,10.64
2022-09-20T06:53:18.882Z,10.70
2022-09-20T06:55:50.061Z,10.75
2022-09-20T06:58:18.901Z,10.80
2022-09-20T07:00:48.396Z,10.85
2022-09-20T07:03:19.579Z,10.88
2022-09-20T07:05:48.651Z,10.92
2022-09-20T07:08:18.316Z,10.96
2022-09-20T07:10:48.695Z,11.00
2022-09-20T07:13:20.917Z,11.04
2022-09-20T07:15:50.765Z,11.10
2022-09-20T07:18:19.625Z,11.14
2022-09-20T07:20:48.573Z,11.17
2022-09-20T07:23:18.575Z,11.20
2022-09-20T07:25:48.790Z,11.25
2022-09-20T07:28:17.955Z,11.31
2022-09-20T07:30:47.045Z,11.35
2022-09-20T07:33:19.595Z,11.50
2022-09-20T07:35:49.563Z,11.54
2022-09-20T07:38:18.488Z,11.65
2022-09-20T07:40:56.983Z,11.85
2022-09-20T07:43:26.263Z,11.98
2022-09-20T07:45:57.975Z,12.19
2022-09-20T07:48:28.608Z,12.29
2022-09-20T07:50:59.399Z,12.42
2022-09-20T07:53:29.191Z,12.54
2022-09-20T07:56:01.078Z,12.68
2022-09-20T07:58:31.341Z,12.83
2022-09-20T08:01:02.313Z,12.97
2022-09-20T08:03:32.949Z,13.03
2022-09-20T08:06:03.213Z,13.11
2022-09-20T08:08:34.451Z,13.17
2022-09-20T08:11:06.752Z,13.25
2022-09-20T08:16:28.239Z,13.36
2022-09-20T08:18:59.275Z,13.39
2022-09-20T08:21:31.579Z,13.43
2022-09-20T08:24:01.430Z,13.48
2022-09-20T08:26:32.639Z,13.55
2022-09-20T08:29:02.333Z,13.58
2022-09-20T08:31:34.458Z,13.61
2022-09-20T08:34:04.789Z,13.64
2022-09-20T08:36:37.031Z,13.69
2022-09-20T08:42:03.523Z,13.80
2022-09-20T08:44:36.293Z,13.86
2022-09-20T08:47:20.374Z,13.88
2022-09-20T08:49:56.719Z,13.94
2022-09-20T08:52:36.273Z,13.98
2022-09-20T08:55:16.959Z,14.05
2022-09-20T08:57:50.317Z,14.10
2022-09-20T09:00:21.445Z,14.12
2022-09-20T09:02:55.103Z,14.18
2022-09-20T09:05:34.902Z,14.22
2022-09-20T09:08:08.956Z,14.28
2022-09-20T09:10:42.884Z,14.37
2022-09-20T09:13:23.266Z,14.43
2022-09-20T09:15:58.297Z,14.49
2022-09-20T09:18:35.907Z,14.54
2022-09-20T09:21:07.786Z,14.62
2022-09-20T09:23:42.630Z,14.75
2022-09-20T09:26:21.214Z,14.82
2022-09-20T09:29:10.454Z,14.90
2022-09-20T09:31:40.069Z,14.97
2022-09-20T09:34:26.096Z,15.03
2022-09-20T09:36:56.016Z,15.09
2022-09-20T09:39:28.402Z,15.16
2022-09-20T09:42:01.260Z,15.23
2022-09-20T09:44:34.035Z,15.27
2022-09-20T09:47:03.803Z,15.29
2022-09-20T09:49:36.402Z,15.30
2022-09-20T09:52:13.472Z,15.29
2022-09-20T09:54:47.632Z,15.29
2022-09-20T09:57:34.134Z,15.27
2022-09-20T10:00:19.951Z,15.27
2022-09-20T10:03:20.324Z,15.29
2022-09-20T10:06:04.443Z,15.32
2022-09-20T10:08:41.093Z,15.39
2022-09-20T10:11:21.808Z,15.50
2022-09-20T10:13:58.863Z,15.58
2022-09-20T10:16:44.686Z,15.61
2022-09-20T10:19:26.993Z,15.63
2022-09-20T10:22:03.564Z,15.62
2022-09-20T10:24:51.200Z,15.57
2022-09-20T10:27:31.783Z,15.52
2022-09-20T10:30:13.879Z,15.45
2022-09-20T10:33:05.447Z,15.41
2022-09-20T10:35:56.120Z,15.36
2022-09-20T10:38:31.384Z,15.35
2022-09-20T10:41:31.543Z,15.35
2022-09-20T10:44:28.456Z,15.36
2022-09-20T10:47:09.856Z,15.38
2022-09-20T10:49:50.789Z,15.43
2022-09-20T10:52:54.230Z,15.46
2022-09-20T10:55:39.312Z,15.52
2022-09-20T10:58:49.551Z,15.59
2022-09-20T11:01:24.670Z,15.65
2022-09-20T11:04:05.603Z,15.70
2022-09-20T11:06:49.697Z,15.75
2022-09-20T11:09:23.484Z,15.79
2022-09-20T11:11:55.711Z,15.82
2022-09-20T11:14:33.580Z,15.87
2022-09-20T11:17:09.512Z,15.89
2022-09-20T11:19:48.776Z,15.88
2022-09-20T11:22:24.451Z,15.86
2022-09-20T11:25:00.840Z,15.84
2022-09-20T11:27:35.927Z,15.82
2022-09-20T11:30:08.904Z,15.77
2022-09-20T11:32:42.574Z,15.73
2022-09-20T11:35:27.076Z,15.68
2022-09-20T11:38:03.575Z,15.63
2022-09-20T11:40:38.070Z,15.58
2022-09-20T11:43:09.517Z,15.53
2022-09-20T11:45:43.700Z,15.50
2022-09-20T11:48:19.330Z,15.47
2022-09-20T11:51:26.853Z,15.46
2022-09-20T11:54:20.103Z,15.47
2022-09-20T11:56:52.986Z,15.51
2022-09-20T11:59:31.310Z,15.55
2022-09-20T12:02:04.256Z,15.63
2022-09-20T12:04:37.397Z,15.69
2022-09-20T12:07:17.836Z,15.74
2022-09-20T12:09:56.381Z,15.77
2022-09-20T12:12:37.405Z,15.80
2022-09-20T12:15:09.067Z,15.84
2022-09-20T12:18:23.138Z,15.87
2022-09-20T12:21:04.408Z,15.89
2022-09-20T12:24:10.265Z,15.89
2022-09-20T12:26:51.307Z,15.89
2022-09-20T12:30:02.020Z,15.87
2022-09-20T12:32:54.971Z,15.83
2022-09-20T12:36:19.400Z,15.78
2022-09-20T12:38:52.468Z,15.71
2022-09-20T12:41:28.338Z,15.64
2022-09-20T12:44:06.955Z,15.58
2022-09-20T12:46:44.727Z,15.53
2022-09-20T12:49:57.617Z,15.48
2022-09-20T12:53:00.795Z,15.45
2022-09-20T12:55:49.611Z,15.44
2022-09-20T12:58:32.594Z,15.44
2022-09-20T13:01:32.996Z,15.48
2022-09-20T13:04:52.878Z,15.51
2022-09-20T13:07:43.812Z,15.57
2022-09-20T13:10:30.133Z,15.60
2022-09-20T13:13:16.128Z,15.65
2022-09-20T13:15:52.429Z,15.69
2022-09-20T13:18:25.120Z,15.71
2022-09-20T13:20:55.946Z,15.72
2022-09-20T13:23:29.039Z,15.76
2022-09-20T13:25:59.504Z,15.84
2022-09-20T13:28:40.362Z,16.03
2022-09-20T13:31:30.157Z,16.35
2022-09-20T13:34:16.049Z,16.71
2022-09-20T13:36:45.472Z,16.98
2022-09-20T13:39:35.125Z,17.13
2022-09-20T13:42:11.686Z,17.25
2022-09-20T13:44:41.020Z,17.31
2022-09-20T13:47:28.045Z,17.34
2022-09-20T13:50:03.287Z,17.32
2022-09-20T13:52:34.682Z,17.36
2022-09-20T13:55:28.601Z,17.55
2022-09-20T13:58:01.239Z,17.93
2022-09-20T14:00:31.151Z,18.42
2022-09-20T14:03:00.679Z,19.03
2022-09-20T14:05:32.338Z,19.66
2022-09-20T14:08:03.466Z,20.31
2022-09-20T14:10:37.313Z,20.97
2022-09-20T14:13:09.874Z,21.60
2022-09-20T14:15:42.166Z,22.11
2022-09-20T14:18:17.691Z,22.53
2022-09-20T14:20:48.946Z,22.69
2022-09-20T14:23:24.567Z,22.82
2022-09-20T14:26:24.688Z,23.07
2022-09-20T14:28:54.038Z,23.34
2022-09-20T14:31:26.587Z,23.63
2022-09-20T14:34:00.767Z,24.00
2022-09-20T14:36:32.345Z,24.39
2022-09-20T14:39:05.952Z,24.78
2022-09-20T14:41:37.947Z,25.24
2022-09-20T14:44:17.356Z,25.69
2022-09-20T14:46:46.723Z,26.16
2022-09-20T14:49:32.275Z,26.67
2022-09-20T14:52:43.728Z,27.14
2022-09-20T14:55:28.515Z,27.53
2022-09-20T14:58:03.339Z,27.63
2022-09-20T15:00:50.002Z,27.47
2022-09-20T15:03:26.789Z,27.12
2022-09-20T15:05:56.155Z,26.69
2022-09-20T15:08:26.969Z,26.21
2022-09-20T15:10:56.357Z,25.67
2022-09-20T15:13:25.455Z,25.12
2022-09-20T15:15:55.427Z,24.62
2022-09-20T15:18:26.731Z,24.09
2022-09-20T15:20:56.286Z,23.45
2022-09-20T15:23:26.844Z,22.85
2022-09-20T15:25:56.481Z,22.24
2022-09-20T15:28:26.755Z,21.71
2022-09-20T15:30:56.088Z,21.16
2022-09-20T15:33:25.351Z,20.61
2022-09-20T15:35:54.266Z,20.13
2022-09-20T15:38:26.916Z,19.65
2022-09-20T15:40:57.545Z,19.17
2022-09-20T15:43:31.029Z,18.73
2022-09-20T15:46:02.442Z,18.29
2022-09-20T15:48:32.584Z,17.91
2022-09-20T15:51:04.092Z,17.54
2022-09-20T15:53:35.028Z,17.19
2022-09-20T15:56:15.270Z,16.88
2022-09-20T15:58:47.839Z,16.62
2022-09-20T16:01:19.086Z,16.36
2022-09-20T16:06:35.368Z,15.91
2022-09-20T16:09:05.192Z,15.71
2022-09-20T16:11:36.000Z,15.51
2022-09-20T16:14:05.473Z,15.34
2022-09-20T16:16:40.022Z,15.20
2022-09-20T16:19:20.883Z,15.07
2022-09-20T16:21:57.589Z,14.94
2022-09-20T16:24:28.722Z,14.80
2022-09-20T16:27:00.817Z,14.68
2022-09-20T16:29:30.657Z,14.56
2022-09-20T16:32:00.922Z,14.45
2022-09-20T16:34:31.651Z,14.34
2022-09-20T16:37:04.771Z,14.25
2022-09-20T16:39:34.767Z,14.15
2022-09-20T16:42:08.793Z,14.06
2022-09-20T16:44:40.208Z,13.98
2022-09-20T16:47:12.405Z,13.91
2022-09-20T16:49:41.716Z,13.83
2022-09-20T16:52:12.248Z,13.76
2022-09-20T16:54:41.211Z,13.72
2022-09-20T16:57:13.404Z,13.68
2022-09-20T16:59:42.789Z,13.63
2022-09-20T17:02:13.256Z,13.54
2022-09-20T17:04:43.706Z,13.48
2022-09-20T17:07:12.926Z,13.38
2022-09-20T17:09:41.943Z,13.30
2022-09-20T17:12:13.687Z,13.24
2022-09-20T17:14:43.655Z,13.18
2022-09-20T17:17:13.167Z,13.12
2022-09-20T17:19:42.487Z,13.05
2022-09-20T17:22:11.704Z,13.00
2022-09-20T17:24:40.609Z,12.92
2022-09-20T17:27:09.433Z,12.86
2022-09-20T17:29:39.830Z,12.79
2022-09-20T17:32:09.083Z,12.75
2022-09-20T17:34:38.266Z,12.71
2022-09-20T17:37:07.717Z,12.70
2022-09-20T17:39:36.560Z,12.70
2022-09-20T17:42:05.664Z,12.71
2022-09-20T17:44:37.547Z,12.69
2022-09-20T17:47:08.165Z,12.63
2022-09-20T17:49:38.467Z,12.61
2022-09-20T17:52:08.440Z,12.55
2022-09-20T17:54:38.069Z,12.52
2022-09-20T17:57:06.933Z,12.45
2022-09-20T17:59:36.705Z,12.39
2022-09-20T18:02:07.291Z,12.35
2022-09-20T18:04:36.160Z,12.29
2022-09-20T18:07:05.268Z,12.26
2022-09-20T18:09:34.397Z,12.21
2022-09-20T18:12:04.999Z,12.15
2022-09-20T18:14:34.109Z,12.11
2022-09-20T18:17:03.649Z,12.04
2022-09-20T18:19:34.539Z,12.01
2022-09-20T18:22:04.388Z,11.97
2022-09-20T18:24:34.153Z,11.94
2022-09-20T18:27:04.511Z,11.89
2022-09-20T18:29:36.884Z,11.87
2022-09-20T18:32:08.722Z,11.86
2022-09-20T18:34:39.114Z,11.86
2022-09-20T18:37:13.817Z,11.89
2022-09-20T18:39:43.919Z,11.89
2022-09-20T18:42:12.970Z,11.87
2022-09-20T18:44:44.123Z,11.87
2022-09-20T18:47:13.141Z,11.86
2022-09-20T18:49:43.542Z,11.88
2022-09-20T18:52:13.161Z,11.89
2022-09-20T18:54:42.131Z,11.90
2022-09-20T18:57:12.177Z,11.91
2022-09-20T18:59:49.724Z,11.92
2022-09-20T19:02:54.856Z,11.91
2022-09-20T19:05:31.969Z,11.88
2022-09-20T19:08:11.887Z,11.88
2022-09-20T19:10:49.179Z,11.88
2022-09-20T19:13:29.149Z,11.89
2022-09-20T19:16:21.353Z,11.88
2022-09-20T19:19:24.298Z,11.88
2022-09-20T19:22:08.638Z,11.85
2022-09-20T19:25:01.353Z,11.83
2022-09-20T19:27:30.787Z,11.82
2022-09-20T19:30:00.475Z,11.79
2022-09-20T19:32:29.607Z,11.79
2022-09-20T19:35:01.643Z,11.77
2022-09-20T19:37:40.000Z,11.77
2022-09-20T19:40:27.033Z,11.75
2022-09-20T19:43:13.195Z,11.73
2022-09-20T19:45:50.160Z,11.71
2022-09-20T19:48:27.167Z,11.71
2022-09-20T19:50:56.841Z,11.68
2022-09-20T19:53:28.199Z,11.66
2022-09-20T19:56:04.452Z,11.65
2022-09-20T19:58:35.573Z,11.63
2022-09-20T20:01:04.854Z,11.59
2022-09-20T20:03:34.075Z,11.57
2022-09-20T20:06:12.441Z,11.56
2022-09-20T20:08:50.577Z,11.55
2022-09-20T20:11:27.371Z,11.51
2022-09-20T20:14:07.914Z,11.48
2022-09-20T20:16:48.883Z,11.46
2022-09-20T20:19:44.886Z,11.44
2022-09-20T20:22:29.972Z,11.42
2022-09-20T20:25:02.018Z,11.38
2022-09-20T20:27:32.509Z,11.38
2022-09-20T20:30:01.858Z,11.36
2022-09-20T20:32:30.743Z,11.36
2022-09-20T20:34:59.600Z,11.36
2022-09-20T20:37:28.862Z,11.36
2022-09-20T20:39:59.116Z,11.36
2022-09-20T20:42:28.084Z,11.37
2022-09-20T20:44:57.689Z,11.36
2022-09-20T20:47:26.484Z,11.36
2022-09-20T20:49:55.294Z,11.36
2022-09-20T20:52:24.401Z,11.33
2022-09-20T20:54:53.210Z,11.33
2022-09-20T20:57:23.421Z,11.33
2022-09-20T20:59:53.030Z,11.30
2022-09-20T21:02:22.082Z,11.29
2022-09-20T21:04:51.629Z,11.27
2022-09-20T21:07:20.674Z,11.28
2022-09-20T21:09:49.496Z,11.28
2022-09-20T21:12:18.586Z,11.27
2022-09-20T21:14:49.010Z,11.25
2022-09-20T21:17:17.810Z,11.26
2022-09-20T21:19:46.594Z,11.27
2022-09-20T21:22:15.600Z,11.25
2022-09-20T21:24:44.396Z,11.22
2022-09-20T21:27:13.374Z,11.21
2022-09-20T21:29:42.429Z,11.20
2022-09-20T21:32:14.460Z,11.21
2022-09-20T21:34:43.520Z,11.22
2022-09-20T21:37:12.367Z,11.21
2022-09-20T21:39:41.216Z,11.20
2022-09-20T21:42:10.296Z,11.18
2022-09-20T21:44:41.498Z,11.18
2022-09-20T21:47:20.154Z,11.17
2022-09-20T21:49:49.318Z,11.16
2022-09-20T21:52:18.142Z,11.14
2022-09-20T21:54:47.110Z,11.13
2022-09-20T21:57:16.141Z,11.12
2022-09-20T21:59:45.032Z,11.10
2022-09-20T22:02:17.086Z,11.09
2022-09-20T22:04:46.482Z,11.07
2022-09-20T22:07:15.928Z,11.06
2022-09-20T22:09:45.334Z,11.03
2022-09-20T22:12:14.589Z,11.01
2022-09-20T22:14:44.515Z,11.04
2022-09-20T22:17:14.716Z,11.01
2022-09-20T22:19:44.793Z,10.98
2022-09-20T22:22:13.809Z,10.97
2022-09-20T22:24:42.696Z,10.98
2022-09-20T22:27:11.974Z,10.96
2022-09-20T22:29:40.808Z,10.96
2022-09-20T22:32:09.812Z,10.95
2022-09-20T22:34:40.259Z,10.98
2022-09-20T22:37:09.133Z,11.01
2022-09-20T22:39:38.066Z,11.03
2022-09-20T22:42:07.422Z,11.03
2022-09-20T22:44:36.272Z,11.07
2022-09-20T22:47:05.367Z,11.07
2022-09-20T22:49:34.447Z,11.07
2022-09-20T22:52:04.848Z,11.06
2022-09-20T22:54:35.563Z,11.08
2022-09-20T22:57:05.809Z,11.06
2022-09-20T22:59:34.886Z,11.06
2022-09-20T23:02:03.785Z,11.04
2022-09-20T23:04:32.882Z,11.02
2022-09-20T23:07:03.096Z,11.00
2022-09-20T23:09:31.956Z,11.01
2022-09-20T23:12:00.999Z,10.97
2022-09-20T23:14:29.976Z,10.95
2022-09-20T23:16:58.999Z,10.92
2022-09-20T23:19:28.160Z,10.90
2022-09-20T23:21:56.989Z,10.89
2022-09-20T23:24:27.222Z,10.87
2022-09-20T23:26:56.760Z,10.87
2022-09-20T23:29:25.735Z,10.87
2022-09-20T23:31:54.710Z,10.89
2022-09-20T23:34:23.750Z,10.88
2022-09-20T23:36:52.767Z,10.88
2022-09-20T23:39:21.645Z,10.87
2022-09-20T23:41:52.050Z,10.88
2022-09-20T23:44:21.871Z,10.88
2022-09-20T23:46:50.903Z,10.90
2022-09-20T23:49:19.784Z,10.90
2022-09-20T23:51:48.629Z,10.88
2022-09-20T23:54:17.669Z,10.87
2022-09-20T23:56:46.518Z,10.85
2022-09-20T23:59:16.902Z,10.87
